< < Back
Terminal Aerodrome Forecast


Current Version              Previous Versions:   1  2  3  4  5  6  7  8  9  

Terminal Aerodrome Forecast

059
FTUS44 KMRX 292325
TAFTYS
TAF
KTYS 292325Z 3000/3024 06003KT P6SM SCT050
     FM300700 00000KT 5SM BR FEW040
     FM300900 00000KT 2SM BR SCT004
     FM301230 00000KT 4SM BR FEW006
     FM301330 VRB03KT P6SM SCT250=



Latest METAR

498
SAUS80 KWBC 300500 RRA
MTRTYS
METAR KTYS 300453Z 00000KT 10SM CLR 18/16 A2995 RMK AO2 SLP134 T01780156
402720178


USA.gov is the U.S. government's official web portal to all federal, state and local government web resources and services.